sensor_id;sensor_type;location;lat;lon;timestamp;pressure;altitude;pressure_sealevel;temperature;humidity
57990;BME280;58373;51.824;5.564;2023-08-31T00:02:11;100740.88;;;11.53;92.77
57990;BME280;58373;51.824;5.564;2023-08-31T00:04:36;100743.72;;;11.50;93.37
57990;BME280;58373;51.824;5.564;2023-08-31T00:07:01;100742.09;;;11.49;93.39
57990;BME280;58373;51.824;5.564;2023-08-31T00:09:27;100739.47;;;11.49;92.79
57990;BME280;58373;51.824;5.564;2023-08-31T00:11:52;100744.69;;;11.49;93.28
57990;BME280;58373;51.824;5.564;2023-08-31T00:14:17;100744.00;;;11.47;93.52
57990;BME280;58373;51.824;5.564;2023-08-31T00:16:43;100735.25;;;11.48;93.78
57990;BME280;58373;51.824;5.564;2023-08-31T00:19:10;100730.31;;;11.45;93.55
57990;BME280;58373;51.824;5.564;2023-08-31T00:21:38;100732.22;;;11.43;93.18
57990;BME280;58373;51.824;5.564;2023-08-31T00:24:03;100728.00;;;11.42;93.74
57990;BME280;58373;51.824;5.564;2023-08-31T00:26:29;100723.72;;;11.41;94.31
57990;BME280;58373;51.824;5.564;2023-08-31T00:28:56;100717.19;;;11.37;94.13
57990;BME280;58373;51.824;5.564;2023-08-31T00:31:21;100719.88;;;11.35;93.66
57990;BME280;58373;51.824;5.564;2023-08-31T00:33:46;100720.72;;;11.36;95.06
57990;BME280;58373;51.824;5.564;2023-08-31T00:36:13;100721.66;;;11.35;94.30
57990;BME280;58373;51.824;5.564;2023-08-31T00:38:38;100726.19;;;11.33;94.30
57990;BME280;58373;51.824;5.564;2023-08-31T00:41:04;100736.84;;;11.30;93.93
57990;BME280;58373;51.824;5.564;2023-08-31T00:43:29;100737.09;;;11.27;94.46
57990;BME280;58373;51.824;5.564;2023-08-31T00:45:54;100741.59;;;11.25;94.66
57990;BME280;58373;51.824;5.564;2023-08-31T00:48:23;100745.28;;;11.22;95.02
57990;BME280;58373;51.824;5.564;2023-08-31T00:50:48;100735.97;;;11.20;95.08
57990;BME280;58373;51.824;5.564;2023-08-31T00:53:14;100735.16;;;11.19;95.20
57990;BME280;58373;51.824;5.564;2023-08-31T00:55:40;100730.06;;;11.17;95.08
57990;BME280;58373;51.824;5.564;2023-08-31T00:58:05;100724.22;;;11.15;95.21
57990;BME280;58373;51.824;5.564;2023-08-31T01:00:43;100726.94;;;11.14;95.82
57990;BME280;58373;51.824;5.564;2023-08-31T01:03:18;100724.47;;;11.12;95.26
57990;BME280;58373;51.824;5.564;2023-08-31T01:08:18;100714.06;;;11.12;95.57
57990;BME280;58373;51.824;5.564;2023-08-31T01:13:15;100710.56;;;11.13;96.14
57990;BME280;58373;51.824;5.564;2023-08-31T01:15:44;100718.19;;;11.15;95.80
57990;BME280;58373;51.824;5.564;2023-08-31T01:18:11;100716.56;;;11.14;95.99
57990;BME280;58373;51.824;5.564;2023-08-31T01:20:52;100723.53;;;11.13;96.47
57990;BME280;58373;51.824;5.564;2023-08-31T01:23:20;100722.28;;;11.17;96.22
57990;BME280;58373;51.824;5.564;2023-08-31T01:25:46;100727.22;;;11.21;96.44
57990;BME280;58373;51.824;5.564;2023-08-31T01:28:13;100725.31;;;11.23;96.32
57990;BME280;58373;51.824;5.564;2023-08-31T01:30:38;100728.63;;;11.25;95.94
57990;BME280;58373;51.824;5.564;2023-08-31T01:33:04;100739.00;;;11.25;97.24
57990;BME280;58373;51.824;5.564;2023-08-31T01:35:34;100739.00;;;11.25;96.68
57990;BME280;58373;51.824;5.564;2023-08-31T01:38:02;100738.72;;;11.28;96.55
57990;BME280;58373;51.824;5.564;2023-08-31T01:42:57;100739.16;;;11.33;96.73
57990;BME280;58373;51.824;5.564;2023-08-31T01:45:23;100731.50;;;11.31;97.35
57990;BME280;58373;51.824;5.564;2023-08-31T01:47:49;100733.00;;;11.34;96.96
57990;BME280;58373;51.824;5.564;2023-08-31T01:50:14;100746.69;;;11.36;97.77
57990;BME280;58373;51.824;5.564;2023-08-31T01:52:39;100735.22;;;11.38;98.24
57990;BME280;58373;51.824;5.564;2023-08-31T01:55:05;100737.66;;;11.40;97.63
57990;BME280;58373;51.824;5.564;2023-08-31T01:57:30;100735.78;;;11.42;97.85
57990;BME280;58373;51.824;5.564;2023-08-31T01:59:57;100728.91;;;11.41;97.88
57990;BME280;58373;51.824;5.564;2023-08-31T02:02:22;100739.06;;;11.44;98.16
57990;BME280;58373;51.824;5.564;2023-08-31T02:04:47;100726.75;;;11.46;98.65
57990;BME280;58373;51.824;5.564;2023-08-31T02:07:12;100731.69;;;11.49;98.64
57990;BME280;58373;51.824;5.564;2023-08-31T02:09:37;100732.25;;;11.53;98.39
57990;BME280;58373;51.824;5.564;2023-08-31T02:12:03;100726.78;;;11.56;98.44
57990;BME280;58373;51.824;5.564;2023-08-31T02:14:32;100724.03;;;11.57;98.42
57990;BME280;58373;51.824;5.564;2023-08-31T02:16:57;100725.69;;;11.58;98.38
57990;BME280;58373;51.824;5.564;2023-08-31T02:19:22;100723.78;;;11.60;98.21
57990;BME280;58373;51.824;5.564;2023-08-31T02:21:47;100723.78;;;11.60;98.50
57990;BME280;58373;51.824;5.564;2023-08-31T02:24:12;100723.78;;;11.60;99.03
57990;BME280;58373;51.824;5.564;2023-08-31T02:26:40;100716.66;;;11.62;98.79
57990;BME280;58373;51.824;5.564;2023-08-31T02:29:05;100725.16;;;11.64;98.82
57990;BME280;58373;51.824;5.564;2023-08-31T02:31:30;100730.38;;;11.64;99.40
57990;BME280;58373;51.824;5.564;2023-08-31T02:33:56;100732.00;;;11.65;99.36
57990;BME280;58373;51.824;5.564;2023-08-31T02:36:21;100734.47;;;11.67;99.69
57990;BME280;58373;51.824;5.564;2023-08-31T02:38:46;100734.59;;;11.65;99.19
57990;BME280;58373;51.824;5.564;2023-08-31T02:41:12;100729.25;;;11.67;98.65
57990;BME280;58373;51.824;5.564;2023-08-31T02:43:38;100738.69;;;11.68;99.69
57990;BME280;58373;51.824;5.564;2023-08-31T02:46:04;100732.81;;;11.66;99.59
57990;BME280;58373;51.824;5.564;2023-08-31T02:48:29;100738.84;;;11.66;99.26
57990;BME280;58373;51.824;5.564;2023-08-31T02:50:58;100742.38;;;11.65;99.82
57990;BME280;58373;51.824;5.564;2023-08-31T02:53:26;100740.47;;;11.67;99.84
57990;BME280;58373;51.824;5.564;2023-08-31T02:55:51;100746.63;;;11.66;99.50
57990;BME280;58373;51.824;5.564;2023-08-31T02:58:16;100744.84;;;11.67;99.53
57990;BME280;58373;51.824;5.564;2023-08-31T03:00:41;100740.47;;;11.67;99.63
57990;BME280;58373;51.824;5.564;2023-08-31T03:03:08;100731.19;;;11.65;99.56
57990;BME280;58373;51.824;5.564;2023-08-31T03:05:33;100736.91;;;11.68;99.53
57990;BME280;58373;51.824;5.564;2023-08-31T03:07:59;100737.72;;;11.69;100.00
57990;BME280;58373;51.824;5.564;2023-08-31T03:10:25;100738.56;;;11.69;100.00
57990;BME280;58373;51.824;5.564;2023-08-31T03:12:50;100735.94;;;11.69;100.00
57990;BME280;58373;51.824;5.564;2023-08-31T03:15:15;100737.72;;;11.69;99.92
57990;BME280;58373;51.824;5.564;2023-08-31T03:17:41;100735.13;;;11.69;100.00
57990;BME280;58373;51.824;5.564;2023-08-31T03:20:07;100741.16;;;11.69;100.00
57990;BME280;58373;51.824;5.564;2023-08-31T03:22:32;100740.22;;;11.70;100.00
57990;BME280;58373;51.824;5.564;2023-08-31T03:24:57;100736.81;;;11.70;100.00
57990;BME280;58373;51.824;5.564;2023-08-31T03:27:22;100728.16;;;11.69;100.00
57990;BME280;58373;51.824;5.564;2023-08-31T03:29:47;100732.41;;;11.70;100.00
57990;BME280;58373;51.824;5.564;2023-08-31T03:32:13;100736.91;;;11.68;100.00
57990;BME280;58373;51.824;5.564;2023-08-31T03:34:38;100729.81;;;11.70;100.00
57990;BME280;58373;51.824;5.564;2023-08-31T03:37:04;100741.84;;;11.72;100.00
57990;BME280;58373;51.824;5.564;2023-08-31T03:39:29;100745.41;;;11.70;100.00
57990;BME280;58373;51.824;5.564;2023-08-31T03:41:54;100753.06;;;11.72;100.00
57990;BME280;58373;51.824;5.564;2023-08-31T03:44:22;100744.44;;;11.72;100.00
57990;BME280;58373;51.824;5.564;2023-08-31T03:46:47;100735.03;;;11.70;100.00
57990;BME280;58373;51.824;5.564;2023-08-31T03:49:13;100732.53;;;11.69;100.00
57990;BME280;58373;51.824;5.564;2023-08-31T03:51:38;100725.56;;;11.69;100.00
57990;BME280;58373;51.824;5.564;2023-08-31T03:54:03;100723.81;;;11.70;100.00
57990;BME280;58373;51.824;5.564;2023-08-31T03:56:28;100733.34;;;11.69;100.00
57990;BME280;58373;51.824;5.564;2023-08-31T03:58:54;100731.72;;;11.68;100.00
57990;BME280;58373;51.824;5.564;2023-08-31T04:01:19;100724.88;;;11.67;100.00
57990;BME280;58373;51.824;5.564;2023-08-31T04:03:44;100731.72;;;11.68;100.00
57990;BME280;58373;51.824;5.564;2023-08-31T04:06:09;100738.56;;;11.69;100.00
57990;BME280;58373;51.824;5.564;2023-08-31T04:08:35;100745.66;;;11.67;100.00
57990;BME280;58373;51.824;5.564;2023-08-31T04:11:00;100742.66;;;11.62;100.00
57990;BME280;58373;51.824;5.564;2023-08-31T04:13:25;100749.47;;;11.63;100.00
57990;BME280;58373;51.824;5.564;2023-08-31T04:15:51;100752.22;;;11.62;100.00
57990;BME280;58373;51.824;5.564;2023-08-31T04:18:17;100751.66;;;11.58;100.00
57990;BME280;58373;51.824;5.564;2023-08-31T04:20:49;100761.38;;;11.56;100.00
57990;BME280;58373;51.824;5.564;2023-08-31T04:23:19;100759.06;;;11.53;100.00
57990;BME280;58373;51.824;5.564;2023-08-31T04:25:45;100756.69;;;11.50;100.00
57990;BME280;58373;51.824;5.564;2023-08-31T04:28:10;100766.41;;;11.48;100.00
57990;BME280;58373;51.824;5.564;2023-08-31T04:30:35;100765.03;;;11.44;100.00
57990;BME280;58373;51.824;5.564;2023-08-31T04:33:01;100766.66;;;11.45;100.00
57990;BME280;58373;51.824;5.564;2023-08-31T04:35:26;100764.34;;;11.42;100.00
57990;BME280;58373;51.824;5.564;2023-08-31T04:37:52;100767.19;;;11.39;100.00
57990;BME280;58373;51.824;5.564;2023-08-31T04:40:17;100772.66;;;11.36;100.00
57990;BME280;58373;51.824;5.564;2023-08-31T04:42:42;100771.28;;;11.32;100.00
57990;BME280;58373;51.824;5.564;2023-08-31T04:45:08;100768.00;;;11.30;100.00
57990;BME280;58373;51.824;5.564;2023-08-31T04:47:33;100780.28;;;11.28;100.00
57990;BME280;58373;51.824;5.564;2023-08-31T04:49:58;100778.63;;;11.27;100.00
57990;BME280;58373;51.824;5.564;2023-08-31T04:52:24;100780.56;;;11.25;100.00
57990;BME280;58373;51.824;5.564;2023-08-31T04:54:49;100779.84;;;11.23;100.00
57990;BME280;58373;51.824;5.564;2023-08-31T04:57:14;100787.09;;;11.19;100.00
57990;BME280;58373;51.824;5.564;2023-08-31T04:59:40;100789.78;;;11.17;100.00
57990;BME280;58373;51.824;5.564;2023-08-31T05:02:05;100791.69;;;11.15;100.00
57990;BME280;58373;51.824;5.564;2023-08-31T05:04:30;100797.13;;;11.12;100.00
57990;BME280;58373;51.824;5.564;2023-08-31T05:06:55;100806.69;;;11.12;100.00
57990;BME280;58373;51.824;5.564;2023-08-31T05:09:21;100802.59;;;11.09;100.00
57990;BME280;58373;51.824;5.564;2023-08-31T05:11:46;100804.50;;;11.07;100.00
57990;BME280;58373;51.824;5.564;2023-08-31T05:14:11;100816.78;;;11.05;100.00
57990;BME280;58373;51.824;5.564;2023-08-31T05:16:36;100820.31;;;11.04;100.00
57990;BME280;58373;51.824;5.564;2023-08-31T05:19:01;100817.88;;;11.03;100.00
57990;BME280;58373;51.824;5.564;2023-08-31T05:21:27;100826.03;;;10.98;100.00
57990;BME280;58373;51.824;5.564;2023-08-31T05:23:53;100829.59;;;10.97;100.00
57990;BME280;58373;51.824;5.564;2023-08-31T05:26:18;100838.31;;;10.96;100.00
57990;BME280;58373;51.824;5.564;2023-08-31T05:28:43;100835.84;;;10.95;100.00
57990;BME280;58373;51.824;5.564;2023-08-31T05:31:08;100827.94;;;10.96;100.00
57990;BME280;58373;51.824;5.564;2023-08-31T05:33:34;100838.31;;;10.96;100.00
57990;BME280;58373;51.824;5.564;2023-08-31T05:36:02;100835.72;;;10.96;100.00
57990;BME280;58373;51.824;5.564;2023-08-31T05:38:28;100835.59;;;10.98;100.00
57990;BME280;58373;51.824;5.564;2023-08-31T05:40:54;100835.59;;;10.98;100.00
57990;BME280;58373;51.824;5.564;2023-08-31T05:43:19;100833.13;;;10.96;100.00
57990;BME280;58373;51.824;5.564;2023-08-31T05:45:44;100839.16;;;10.97;100.00
57990;BME280;58373;51.824;5.564;2023-08-31T05:48:11;100838.31;;;10.96;100.00
57990;BME280;58373;51.824;5.564;2023-08-31T05:50:37;100834.78;;;10.97;100.00
57990;BME280;58373;51.824;5.564;2023-08-31T05:53:02;100843.38;;;10.98;100.00
57990;BME280;58373;51.824;5.564;2023-08-31T05:55:27;100838.31;;;10.96;100.00
57990;BME280;58373;51.824;5.564;2023-08-31T05:57:52;100848.72;;;10.96;100.00
57990;BME280;58373;51.824;5.564;2023-08-31T06:00:18;100845.97;;;10.98;100.00
57990;BME280;58373;51.824;5.564;2023-08-31T06:02:43;100846.78;;;10.98;100.00
57990;BME280;58373;51.824;5.564;2023-08-31T06:05:11;100844.06;;;11.00;100.00
57990;BME280;58373;51.824;5.564;2023-08-31T06:07:37;100848.19;;;11.02;100.00
57990;BME280;58373;51.824;5.564;2023-08-31T06:10:06;100846.97;;;11.06;100.00
57990;BME280;58373;51.824;5.564;2023-08-31T06:12:33;100853.44;;;11.12;100.00
57990;BME280;58373;51.824;5.564;2023-08-31T06:14:58;100864.16;;;11.19;100.00
57990;BME280;58373;51.824;5.564;2023-08-31T06:17:25;100860.31;;;11.23;100.00
57990;BME280;58373;51.824;5.564;2023-08-31T06:19:50;100871.00;;;11.29;100.00
57990;BME280;58373;51.824;5.564;2023-08-31T06:22:15;100866.16;;;11.36;100.00
57990;BME280;58373;51.824;5.564;2023-08-31T06:24:40;100872.47;;;11.43;100.00
57990;BME280;58373;51.824;5.564;2023-08-31T06:27:07;100875.50;;;11.48;100.00
57990;BME280;58373;51.824;5.564;2023-08-31T06:29:32;100878.25;;;11.56;100.00
57990;BME280;58373;51.824;5.564;2023-08-31T06:31:57;100873.50;;;11.61;100.00
57990;BME280;58373;51.824;5.564;2023-08-31T06:34:23;100875.56;;;11.67;100.00
57990;BME280;58373;51.824;5.564;2023-08-31T06:36:48;100876.69;;;11.75;100.00
57990;BME280;58373;51.824;5.564;2023-08-31T06:39:13;100877.84;;;11.82;100.00
57990;BME280;58373;51.824;5.564;2023-08-31T06:41:39;100872.94;;;11.88;100.00
57990;BME280;58373;51.824;5.564;2023-08-31T06:44:04;100877.75;;;11.93;100.00
57990;BME280;58373;51.824;5.564;2023-08-31T06:46:30;100881.47;;;12.00;100.00
57990;BME280;58373;51.824;5.564;2023-08-31T06:48:59;100884.50;;;12.05;100.00
57990;BME280;58373;51.824;5.564;2023-08-31T06:51:24;100877.13;;;12.10;100.00
57990;BME280;58373;51.824;5.564;2023-08-31T06:53:49;100890.50;;;12.15;100.00
57990;BME280;58373;51.824;5.564;2023-08-31T06:56:15;100886.69;;;12.19;100.00
57990;BME280;58373;51.824;5.564;2023-08-31T06:58:40;100889.72;;;12.25;100.00
57990;BME280;58373;51.824;5.564;2023-08-31T07:01:05;100888.34;;;12.30;100.00
57990;BME280;58373;51.824;5.564;2023-08-31T07:03:31;100888.63;;;12.37;100.00
57990;BME280;58373;51.824;5.564;2023-08-31T07:05:56;100891.66;;;12.42;100.00
57990;BME280;58373;51.824;5.564;2023-08-31T07:08:21;100898.25;;;12.46;100.00
57990;BME280;58373;51.824;5.564;2023-08-31T07:10:46;100908.34;;;12.49;100.00
57990;BME280;58373;51.824;5.564;2023-08-31T07:13:12;100913.31;;;12.52;100.00
57990;BME280;58373;51.824;5.564;2023-08-31T07:15:37;100907.81;;;12.55;100.00
57990;BME280;58373;51.824;5.564;2023-08-31T07:18:03;100907.56;;;12.58;100.00
57990;BME280;58373;51.824;5.564;2023-08-31T07:20:28;100912.22;;;12.64;100.00
57990;BME280;58373;51.824;5.564;2023-08-31T07:22:53;100914.41;;;12.69;100.00
57990;BME280;58373;51.824;5.564;2023-08-31T07:25:19;100919.06;;;12.75;100.00
57990;BME280;58373;51.824;5.564;2023-08-31T07:27:44;100914.94;;;12.82;100.00
57990;BME280;58373;51.824;5.564;2023-08-31T07:30:11;100916.44;;;12.94;100.00
57990;BME280;58373;51.824;5.564;2023-08-31T07:32:36;100918.09;;;13.05;100.00
57990;BME280;58373;51.824;5.564;2023-08-31T07:35:02;100924.38;;;13.12;100.00
57990;BME280;58373;51.824;5.564;2023-08-31T07:37:29;100919.56;;;13.17;100.00
57990;BME280;58373;51.824;5.564;2023-08-31T07:39:55;100925.91;;;13.24;100.00
57990;BME280;58373;51.824;5.564;2023-08-31T07:42:20;100918.78;;;13.26;100.00
57990;BME280;58373;51.824;5.564;2023-08-31T07:44:45;100923.69;;;13.29;100.00
57990;BME280;58373;51.824;5.564;2023-08-31T07:47:10;100921.50;;;13.35;100.00
57990;BME280;58373;51.824;5.564;2023-08-31T07:49:35;100925.47;;;13.39;100.00
57990;BME280;58373;51.824;5.564;2023-08-31T07:52:01;100928.47;;;13.44;100.00
57990;BME280;58373;51.824;5.564;2023-08-31T07:54:27;100926.53;;;13.46;100.00
57990;BME280;58373;51.824;5.564;2023-08-31T07:56:53;100931.88;;;13.54;100.00
57990;BME280;58373;51.824;5.564;2023-08-31T07:59:18;100934.91;;;13.59;100.00
57990;BME280;58373;51.824;5.564;2023-08-31T08:01:43;100923.91;;;13.65;100.00
57990;BME280;58373;51.824;5.564;2023-08-31T08:04:08;100933.44;;;13.74;100.00
57990;BME280;58373;51.824;5.564;2023-08-31T08:06:34;100935.34;;;13.82;100.00
57990;BME280;58373;51.824;5.564;2023-08-31T08:08:59;100929.56;;;13.88;100.00
57990;BME280;58373;51.824;5.564;2023-08-31T08:11:24;100922.09;;;13.93;100.00
57990;BME280;58373;51.824;5.564;2023-08-31T08:13:49;100930.47;;;13.97;100.00
57990;BME280;58373;51.824;5.564;2023-08-31T08:16:14;100932.00;;;13.99;100.00
57990;BME280;58373;51.824;5.564;2023-08-31T08:18:40;100928.91;;;14.04;100.00
57990;BME280;58373;51.824;5.564;2023-08-31T08:21:05;100928.06;;;14.13;100.00
57990;BME280;58373;51.824;5.564;2023-08-31T08:23:31;100928.16;;;14.21;100.00
57990;BME280;58373;51.824;5.564;2023-08-31T08:25:56;100933.16;;;14.32;100.00
57990;BME280;58373;51.824;5.564;2023-08-31T08:28:21;100931.97;;;14.45;100.00
57990;BME280;58373;51.824;5.564;2023-08-31T08:30:47;100933.47;;;14.57;100.00
57990;BME280;58373;51.824;5.564;2023-08-31T08:33:12;100941.91;;;14.69;100.00
57990;BME280;58373;51.824;5.564;2023-08-31T08:35:37;100943.31;;;14.81;100.00
57990;BME280;58373;51.824;5.564;2023-08-31T08:38:03;100940.75;;;14.89;100.00
57990;BME280;58373;51.824;5.564;2023-08-31T08:40:30;100947.53;;;15.00;100.00
57990;BME280;58373;51.824;5.564;2023-08-31T08:42:55;100949.25;;;15.09;99.89
57990;BME280;58373;51.824;5.564;2023-08-31T08:45:23;100946.84;;;15.16;98.60
57990;BME280;58373;51.824;5.564;2023-08-31T08:47:52;100950.03;;;15.27;99.00
57990;BME280;58373;51.824;5.564;2023-08-31T08:50:18;100951.59;;;15.38;99.05
57990;BME280;58373;51.824;5.564;2023-08-31T08:52:47;100949.66;;;15.48;98.28
57990;BME280;58373;51.824;5.564;2023-08-31T08:55:13;100952.19;;;15.58;97.84
57990;BME280;58373;51.824;5.564;2023-08-31T08:57:40;100950.97;;;15.70;96.64
57990;BME280;58373;51.824;5.564;2023-08-31T09:00:05;100954.28;;;15.72;96.97
57990;BME280;58373;51.824;5.564;2023-08-31T09:02:31;100956.63;;;15.83;95.50
57990;BME280;58373;51.824;5.564;2023-08-31T09:04:59;100951.41;;;15.91;95.96
57990;BME280;58373;51.824;5.564;2023-08-31T09:07:33;100958.63;;;15.98;95.06
57990;BME280;58373;51.824;5.564;2023-08-31T09:10:00;100959.00;;;16.03;93.94
57990;BME280;58373;51.824;5.564;2023-08-31T09:12:25;100965.56;;;16.15;93.49
57990;BME280;58373;51.824;5.564;2023-08-31T09:15:00;100958.78;;;16.30;93.37
57990;BME280;58373;51.824;5.564;2023-08-31T09:17:25;100963.38;;;16.36;92.66
57990;BME280;58373;51.824;5.564;2023-08-31T09:19:58;100959.13;;;16.43;92.28
57990;BME280;58373;51.824;5.564;2023-08-31T09:22:24;100950.97;;;16.55;92.51
57990;BME280;58373;51.824;5.564;2023-08-31T09:24:49;100964.06;;;16.63;91.45
57990;BME280;58373;51.824;5.564;2023-08-31T09:27:15;100961.78;;;16.68;91.11
57990;BME280;58373;51.824;5.564;2023-08-31T09:29:44;100965.75;;;16.80;90.74
57990;BME280;58373;51.824;5.564;2023-08-31T09:32:09;100968.72;;;16.85;90.17
57990;BME280;58373;51.824;5.564;2023-08-31T09:34:34;100972.16;;;16.94;88.45
57990;BME280;58373;51.824;5.564;2023-08-31T09:37:05;100964.28;;;16.86;88.05
57990;BME280;58373;51.824;5.564;2023-08-31T09:39:35;100971.66;;;16.90;86.80
57990;BME280;58373;51.824;5.564;2023-08-31T09:42:03;100956.44;;;16.94;87.48
57990;BME280;58373;51.824;5.564;2023-08-31T09:44:28;100966.13;;;17.10;88.07
57990;BME280;58373;51.824;5.564;2023-08-31T09:46:53;100964.47;;;17.25;86.99
57990;BME280;58373;51.824;5.564;2023-08-31T09:49:19;100962.84;;;17.32;86.65
57990;BME280;58373;51.824;5.564;2023-08-31T09:51:45;100958.22;;;17.34;86.55
57990;BME280;58373;51.824;5.564;2023-08-31T09:54:14;100966.75;;;17.36;86.08
57990;BME280;58373;51.824;5.564;2023-08-31T09:56:41;100964.78;;;17.38;85.47
57990;BME280;58373;51.824;5.564;2023-08-31T09:59:08;100953.63;;;17.44;85.40
57990;BME280;58373;51.824;5.564;2023-08-31T10:01:33;100962.47;;;17.51;85.01
57990;BME280;58373;51.824;5.564;2023-08-31T10:03:59;100955.22;;;17.62;84.57
57990;BME280;58373;51.824;5.564;2023-08-31T10:06:24;100965.06;;;17.68;83.46
57990;BME280;58373;51.824;5.564;2023-08-31T10:08:49;100961.13;;;17.72;83.44
57990;BME280;58373;51.824;5.564;2023-08-31T10:11:15;100964.56;;;17.81;83.45
57990;BME280;58373;51.824;5.564;2023-08-31T10:13:41;100957.94;;;17.93;82.58
57990;BME280;58373;51.824;5.564;2023-08-31T10:16:06;100954.13;;;18.03;80.26
57990;BME280;58373;51.824;5.564;2023-08-31T10:18:32;100961.97;;;18.12;81.03
57990;BME280;58373;51.824;5.564;2023-08-31T10:20:59;100956.72;;;18.12;80.63
57990;BME280;58373;51.824;5.564;2023-08-31T10:23:24;100956.06;;;18.10;78.05
57990;BME280;58373;51.824;5.564;2023-08-31T10:28:18;100961.38;;;18.01;76.37
57990;BME280;58373;51.824;5.564;2023-08-31T10:30:43;100968.97;;;17.80;74.92
57990;BME280;58373;51.824;5.564;2023-08-31T10:33:25;100973.91;;;17.67;75.61
57990;BME280;58373;51.824;5.564;2023-08-31T10:35:55;100977.22;;;17.52;76.75
57990;BME280;58373;51.824;5.564;2023-08-31T10:38:24;100976.25;;;17.45;77.46
57990;BME280;58373;51.824;5.564;2023-08-31T10:41:02;100973.28;;;17.40;77.19
57990;BME280;58373;51.824;5.564;2023-08-31T10:43:28;100975.59;;;17.35;76.93
57990;BME280;58373;51.824;5.564;2023-08-31T10:46:14;100973.00;;;17.27;77.41
57990;BME280;58373;51.824;5.564;2023-08-31T10:48:50;100977.22;;;17.20;77.62
57990;BME280;58373;51.824;5.564;2023-08-31T10:51:15;100974.63;;;17.12;77.71
57990;BME280;58373;51.824;5.564;2023-08-31T10:53:41;100977.91;;;17.06;76.58
57990;BME280;58373;51.824;5.564;2023-08-31T10:56:06;100986.09;;;16.94;77.43
57990;BME280;58373;51.824;5.564;2023-08-31T10:58:31;100994.75;;;16.95;77.93
57990;BME280;58373;51.824;5.564;2023-08-31T11:00:57;100994.59;;;16.96;76.92
57990;BME280;58373;51.824;5.564;2023-08-31T11:03:22;101004.44;;;16.86;77.33
57990;BME280;58373;51.824;5.564;2023-08-31T11:05:51;100998.00;;;16.72;76.70
57990;BME280;58373;51.824;5.564;2023-08-31T11:08:20;100998.59;;;16.58;77.26
57990;BME280;58373;51.824;5.564;2023-08-31T11:10:45;101002.66;;;16.44;77.28
57990;BME280;58373;51.824;5.564;2023-08-31T11:13:15;101000.00;;;16.36;77.03
57990;BME280;58373;51.824;5.564;2023-08-31T11:15:40;100995.38;;;16.22;77.89
57990;BME280;58373;51.824;5.564;2023-08-31T11:18:10;100989.78;;;16.17;78.42
57990;BME280;58373;51.824;5.564;2023-08-31T11:20:35;100986.88;;;16.20;79.07
57990;BME280;58373;51.824;5.564;2023-08-31T11:23:01;100994.94;;;16.35;78.79
57990;BME280;58373;51.824;5.564;2023-08-31T11:25:29;100992.03;;;16.54;78.52
57990;BME280;58373;51.824;5.564;2023-08-31T11:27:55;100989.34;;;16.72;79.52
57990;BME280;58373;51.824;5.564;2023-08-31T11:30:21;100985.75;;;16.89;78.98
57990;BME280;58373;51.824;5.564;2023-08-31T11:32:52;100994.63;;;17.05;79.04
57990;BME280;58373;51.824;5.564;2023-08-31T11:35:18;100999.53;;;17.16;78.98
57990;BME280;58373;51.824;5.564;2023-08-31T11:37:44;100994.63;;;17.21;78.95
57990;BME280;58373;51.824;5.564;2023-08-31T11:40:10;100996.25;;;17.22;78.98
57990;BME280;58373;51.824;5.564;2023-08-31T11:42:36;100995.44;;;17.30;79.43
57990;BME280;58373;51.824;5.564;2023-08-31T11:45:02;100994.28;;;17.40;79.34
57990;BME280;58373;51.824;5.564;2023-08-31T11:47:30;100991.34;;;17.43;78.79
57990;BME280;58373;51.824;5.564;2023-08-31T11:49:55;100994.44;;;17.47;79.47
57990;BME280;58373;51.824;5.564;2023-08-31T11:52:20;100986.03;;;17.60;79.65
57990;BME280;58373;51.824;5.564;2023-08-31T11:54:46;100983.75;;;17.73;79.44
57990;BME280;58373;51.824;5.564;2023-08-31T11:57:16;100981.75;;;17.83;78.81
57990;BME280;58373;51.824;5.564;2023-08-31T11:59:41;100988.28;;;17.95;79.50
57990;BME280;58373;51.824;5.564;2023-08-31T12:02:07;100982.50;;;18.00;79.07
57990;BME280;58373;51.824;5.564;2023-08-31T12:04:42;100984.69;;;17.96;79.03
57990;BME280;58373;51.824;5.564;2023-08-31T12:07:08;100990.25;;;17.93;79.00
57990;BME280;58373;51.824;5.564;2023-08-31T12:09:33;100988.63;;;17.92;78.70
57990;BME280;58373;51.824;5.564;2023-08-31T12:11:59;100985.00;;;18.01;79.25
57990;BME280;58373;51.824;5.564;2023-08-31T12:14:25;100982.63;;;18.15;78.48
57990;BME280;58373;51.824;5.564;2023-08-31T12:16:51;100986.06;;;18.15;78.76
57990;BME280;58373;51.824;5.564;2023-08-31T12:19:17;100981.13;;;18.20;78.33
57990;BME280;58373;51.824;5.564;2023-08-31T12:21:43;100979.16;;;18.22;77.79
57990;BME280;58373;51.824;5.564;2023-08-31T12:24:09;100979.81;;;18.24;78.78
57990;BME280;58373;51.824;5.564;2023-08-31T12:26:34;100979.94;;;18.31;78.47
57990;BME280;58373;51.824;5.564;2023-08-31T12:29:00;100973.81;;;18.39;78.24
57990;BME280;58373;51.824;5.564;2023-08-31T12:31:25;100986.44;;;18.43;77.70
57990;BME280;58373;51.824;5.564;2023-08-31T12:33:50;100991.69;;;18.43;77.69
57990;BME280;58373;51.824;5.564;2023-08-31T12:36:15;100985.81;;;18.41;76.93
57990;BME280;58373;51.824;5.564;2023-08-31T12:38:41;100989.13;;;18.35;76.23
57990;BME280;58373;51.824;5.564;2023-08-31T12:41:06;100987.47;;;18.34;76.13
57990;BME280;58373;51.824;5.564;2023-08-31T12:43:31;100985.13;;;18.39;76.32
57990;BME280;58373;51.824;5.564;2023-08-31T12:45:56;100988.06;;;18.44;75.74
57990;BME280;58373;51.824;5.564;2023-08-31T12:48:22;100982.81;;;18.44;75.34
57990;BME280;58373;51.824;5.564;2023-08-31T12:50:47;100996.59;;;18.46;75.14